sensor_id;sensor_type;location;lat;lon;timestamp;P1;durP1;ratioP1;P2;durP2;ratioP2
15899;SDS011;8048;50.644;6.184;2022-11-20T00:01:43;11.17;;;7.80;;
15899;SDS011;8048;50.644;6.184;2022-11-20T00:04:10;8.57;;;7.63;;
15899;SDS011;8048;50.644;6.184;2022-11-20T00:06:36;14.43;;;8.30;;
15899;SDS011;8048;50.644;6.184;2022-11-20T00:09:02;11.73;;;8.20;;
15899;SDS011;8048;50.644;6.184;2022-11-20T00:11:30;16.60;;;8.70;;
15899;SDS011;8048;50.644;6.184;2022-11-20T00:13:57;12.93;;;9.10;;
15899;SDS011;8048;50.644;6.184;2022-11-20T00:16:26;11.60;;;9.97;;
15899;SDS011;8048;50.644;6.184;2022-11-20T00:18:53;15.57;;;9.53;;
15899;SDS011;8048;50.644;6.184;2022-11-20T00:21:23;17.00;;;13.10;;
15899;SDS011;8048;50.644;6.184;2022-11-20T00:23:51;14.13;;;10.70;;
15899;SDS011;8048;50.644;6.184;2022-11-20T00:26:19;10.60;;;8.07;;
15899;SDS011;8048;50.644;6.184;2022-11-20T00:28:52;12.80;;;9.87;;
15899;SDS011;8048;50.644;6.184;2022-11-20T00:31:22;9.40;;;7.70;;
15899;SDS011;8048;50.644;6.184;2022-11-20T00:33:48;15.73;;;11.60;;
15899;SDS011;8048;50.644;6.184;2022-11-20T00:36:14;20.13;;;15.30;;
15899;SDS011;8048;50.644;6.184;2022-11-20T00:38:43;13.60;;;10.03;;
15899;SDS011;8048;50.644;6.184;2022-11-20T00:41:14;15.67;;;9.50;;
15899;SDS011;8048;50.644;6.184;2022-11-20T00:43:40;13.73;;;10.73;;
15899;SDS011;8048;50.644;6.184;2022-11-20T00:46:07;16.27;;;10.97;;
15899;SDS011;8048;50.644;6.184;2022-11-20T00:48:35;12.03;;;10.87;;
15899;SDS011;8048;50.644;6.184;2022-11-20T00:51:00;16.27;;;12.40;;
15899;SDS011;8048;50.644;6.184;2022-11-20T00:53:26;17.50;;;13.17;;
15899;SDS011;8048;50.644;6.184;2022-11-20T00:55:56;18.33;;;11.80;;
15899;SDS011;8048;50.644;6.184;2022-11-20T00:58:23;18.67;;;10.33;;
15899;SDS011;8048;50.644;6.184;2022-11-20T01:00:49;15.97;;;9.40;;
15899;SDS011;8048;50.644;6.184;2022-11-20T01:03:16;18.57;;;12.57;;
15899;SDS011;8048;50.644;6.184;2022-11-20T01:05:42;14.80;;;10.20;;
15899;SDS011;8048;50.644;6.184;2022-11-20T01:08:08;15.90;;;9.30;;
15899;SDS011;8048;50.644;6.184;2022-11-20T01:10:33;15.63;;;9.40;;
15899;SDS011;8048;50.644;6.184;2022-11-20T01:12:59;19.30;;;11.00;;
15899;SDS011;8048;50.644;6.184;2022-11-20T01:15:43;14.10;;;10.50;;
15899;SDS011;8048;50.644;6.184;2022-11-20T01:18:08;16.90;;;10.07;;
15899;SDS011;8048;50.644;6.184;2022-11-20T01:20:35;12.97;;;10.10;;
15899;SDS011;8048;50.644;6.184;2022-11-20T01:23:01;13.63;;;9.20;;
15899;SDS011;8048;50.644;6.184;2022-11-20T01:25:27;19.17;;;12.60;;
15899;SDS011;8048;50.644;6.184;2022-11-20T01:27:53;18.73;;;11.57;;
15899;SDS011;8048;50.644;6.184;2022-11-20T01:30:18;14.83;;;8.83;;
15899;SDS011;8048;50.644;6.184;2022-11-20T01:32:44;13.43;;;9.20;;
15899;SDS011;8048;50.644;6.184;2022-11-20T01:35:09;12.40;;;9.03;;
15899;SDS011;8048;50.644;6.184;2022-11-20T01:37:35;14.27;;;8.97;;
15899;SDS011;8048;50.644;6.184;2022-11-20T01:40:00;7.87;;;6.90;;
15899;SDS011;8048;50.644;6.184;2022-11-20T01:42:26;11.53;;;8.93;;
15899;SDS011;8048;50.644;6.184;2022-11-20T01:48:10;14.90;;;9.97;;
15899;SDS011;8048;50.644;6.184;2022-11-20T01:50:36;12.63;;;8.77;;
15899;SDS011;8048;50.644;6.184;2022-11-20T01:53:02;14.23;;;10.23;;
15899;SDS011;8048;50.644;6.184;2022-11-20T01:55:37;14.23;;;9.80;;
15899;SDS011;8048;50.644;6.184;2022-11-20T01:58:08;14.00;;;9.37;;
15899;SDS011;8048;50.644;6.184;2022-11-20T02:00:34;16.00;;;8.50;;
15899;SDS011;8048;50.644;6.184;2022-11-20T02:03:01;13.40;;;8.93;;
15899;SDS011;8048;50.644;6.184;2022-11-20T02:05:38;12.33;;;7.50;;
15899;SDS011;8048;50.644;6.184;2022-11-20T02:08:05;10.60;;;8.37;;
15899;SDS011;8048;50.644;6.184;2022-11-20T02:10:32;8.33;;;6.80;;
15899;SDS011;8048;50.644;6.184;2022-11-20T02:12:58;10.03;;;7.50;;
15899;SDS011;8048;50.644;6.184;2022-11-20T02:15:42;8.37;;;6.47;;
15899;SDS011;8048;50.644;6.184;2022-11-20T02:18:09;11.17;;;7.90;;
15899;SDS011;8048;50.644;6.184;2022-11-20T02:20:36;10.70;;;8.83;;
15899;SDS011;8048;50.644;6.184;2022-11-20T02:23:03;11.03;;;7.90;;
15899;SDS011;8048;50.644;6.184;2022-11-20T02:25:37;19.57;;;7.93;;
15899;SDS011;8048;50.644;6.184;2022-11-20T02:28:04;10.67;;;6.83;;
15899;SDS011;8048;50.644;6.184;2022-11-20T02:30:30;13.37;;;6.90;;
15899;SDS011;8048;50.644;6.184;2022-11-20T02:32:57;9.60;;;7.30;;
15899;SDS011;8048;50.644;6.184;2022-11-20T02:37:48;10.87;;;8.50;;
15899;SDS011;8048;50.644;6.184;2022-11-20T02:40:17;12.13;;;7.53;;
15899;SDS011;8048;50.644;6.184;2022-11-20T02:42:43;13.40;;;7.50;;
15899;SDS011;8048;50.644;6.184;2022-11-20T02:45:09;9.30;;;6.77;;
15899;SDS011;8048;50.644;6.184;2022-11-20T02:47:35;11.30;;;7.13;;
15899;SDS011;8048;50.644;6.184;2022-11-20T02:50:01;8.90;;;7.57;;
15899;SDS011;8048;50.644;6.184;2022-11-20T02:52:27;10.17;;;8.23;;
15899;SDS011;8048;50.644;6.184;2022-11-20T02:54:53;19.33;;;7.80;;
15899;SDS011;8048;50.644;6.184;2022-11-20T02:57:18;11.07;;;8.23;;
15899;SDS011;8048;50.644;6.184;2022-11-20T02:59:44;10.90;;;8.10;;
15899;SDS011;8048;50.644;6.184;2022-11-20T03:02:09;14.13;;;9.53;;
15899;SDS011;8048;50.644;6.184;2022-11-20T03:04:35;8.90;;;6.80;;
15899;SDS011;8048;50.644;6.184;2022-11-20T03:07:00;11.97;;;8.40;;
15899;SDS011;8048;50.644;6.184;2022-11-20T03:09:26;11.83;;;8.20;;
15899;SDS011;8048;50.644;6.184;2022-11-20T03:11:51;11.03;;;8.30;;
15899;SDS011;8048;50.644;6.184;2022-11-20T03:14:17;12.80;;;7.87;;
15899;SDS011;8048;50.644;6.184;2022-11-20T03:16:43;11.87;;;7.43;;
15899;SDS011;8048;50.644;6.184;2022-11-20T03:19:08;10.93;;;6.50;;
15899;SDS011;8048;50.644;6.184;2022-11-20T03:21:34;11.10;;;7.50;;
15899;SDS011;8048;50.644;6.184;2022-11-20T03:24:00;8.77;;;6.37;;
15899;SDS011;8048;50.644;6.184;2022-11-20T03:26:26;8.77;;;6.60;;
15899;SDS011;8048;50.644;6.184;2022-11-20T03:28:53;13.13;;;7.30;;
15899;SDS011;8048;50.644;6.184;2022-11-20T03:31:22;9.13;;;7.30;;
15899;SDS011;8048;50.644;6.184;2022-11-20T03:33:52;10.60;;;8.00;;
15899;SDS011;8048;50.644;6.184;2022-11-20T03:36:18;6.87;;;6.20;;
15899;SDS011;8048;50.644;6.184;2022-11-20T03:38:45;9.90;;;7.30;;
15899;SDS011;8048;50.644;6.184;2022-11-20T03:41:17;12.90;;;7.00;;
15899;SDS011;8048;50.644;6.184;2022-11-20T03:43:51;8.40;;;6.63;;
15899;SDS011;8048;50.644;6.184;2022-11-20T03:46:18;12.43;;;6.93;;
15899;SDS011;8048;50.644;6.184;2022-11-20T03:48:44;7.00;;;6.30;;
15899;SDS011;8048;50.644;6.184;2022-11-20T03:51:11;9.30;;;7.13;;
15899;SDS011;8048;50.644;6.184;2022-11-20T03:54:07;8.43;;;5.50;;
15899;SDS011;8048;50.644;6.184;2022-11-20T03:56:34;9.27;;;6.50;;
15899;SDS011;8048;50.644;6.184;2022-11-20T03:59:01;10.60;;;6.40;;
15899;SDS011;8048;50.644;6.184;2022-11-20T04:01:30;10.30;;;7.70;;
15899;SDS011;8048;50.644;6.184;2022-11-20T04:03:57;6.60;;;5.30;;
15899;SDS011;8048;50.644;6.184;2022-11-20T04:06:24;9.50;;;6.63;;
15899;SDS011;8048;50.644;6.184;2022-11-20T04:08:53;11.17;;;6.93;;
15899;SDS011;8048;50.644;6.184;2022-11-20T04:11:27;9.03;;;5.90;;
15899;SDS011;8048;50.644;6.184;2022-11-20T04:13:55;9.20;;;6.07;;
15899;SDS011;8048;50.644;6.184;2022-11-20T04:16:22;6.87;;;5.30;;
15899;SDS011;8048;50.644;6.184;2022-11-20T04:18:52;8.57;;;5.70;;
15899;SDS011;8048;50.644;6.184;2022-11-20T04:21:19;9.57;;;5.30;;
15899;SDS011;8048;50.644;6.184;2022-11-20T04:23:44;7.50;;;6.80;;
15899;SDS011;8048;50.644;6.184;2022-11-20T04:26:10;9.40;;;6.70;;
15899;SDS011;8048;50.644;6.184;2022-11-20T04:28:37;7.70;;;5.47;;
15899;SDS011;8048;50.644;6.184;2022-11-20T04:31:06;8.00;;;5.67;;
15899;SDS011;8048;50.644;6.184;2022-11-20T04:33:34;7.27;;;5.07;;
15899;SDS011;8048;50.644;6.184;2022-11-20T04:36:03;8.07;;;6.20;;
15899;SDS011;8048;50.644;6.184;2022-11-20T04:38:35;6.60;;;5.83;;
15899;SDS011;8048;50.644;6.184;2022-11-20T04:41:02;6.33;;;5.73;;
15899;SDS011;8048;50.644;6.184;2022-11-20T04:43:29;7.33;;;6.20;;
15899;SDS011;8048;50.644;6.184;2022-11-20T04:45:55;6.53;;;5.83;;
15899;SDS011;8048;50.644;6.184;2022-11-20T04:48:22;8.03;;;5.80;;
15899;SDS011;8048;50.644;6.184;2022-11-20T04:50:49;5.73;;;4.90;;
15899;SDS011;8048;50.644;6.184;2022-11-20T04:53:15;6.00;;;5.40;;
15899;SDS011;8048;50.644;6.184;2022-11-20T04:55:40;5.40;;;4.87;;
15899;SDS011;8048;50.644;6.184;2022-11-20T04:58:06;6.57;;;5.97;;
15899;SDS011;8048;50.644;6.184;2022-11-20T05:00:31;7.07;;;6.37;;
15899;SDS011;8048;50.644;6.184;2022-11-20T05:02:57;6.17;;;5.57;;
15899;SDS011;8048;50.644;6.184;2022-11-20T05:05:22;9.57;;;5.93;;
15899;SDS011;8048;50.644;6.184;2022-11-20T05:07:48;5.33;;;4.77;;
15899;SDS011;8048;50.644;6.184;2022-11-20T05:10:14;5.87;;;5.30;;
15899;SDS011;8048;50.644;6.184;2022-11-20T05:12:39;8.23;;;5.13;;
15899;SDS011;8048;50.644;6.184;2022-11-20T05:15:05;7.07;;;5.07;;
15899;SDS011;8048;50.644;6.184;2022-11-20T05:17:31;7.93;;;5.73;;
15899;SDS011;8048;50.644;6.184;2022-11-20T05:19:57;8.53;;;5.53;;
15899;SDS011;8048;50.644;6.184;2022-11-20T05:22:22;6.00;;;4.33;;
15899;SDS011;8048;50.644;6.184;2022-11-20T05:24:48;5.43;;;4.93;;
15899;SDS011;8048;50.644;6.184;2022-11-20T05:27:13;6.40;;;5.40;;
15899;SDS011;8048;50.644;6.184;2022-11-20T05:29:39;6.73;;;5.77;;
15899;SDS011;8048;50.644;6.184;2022-11-20T05:32:04;5.63;;;4.90;;
15899;SDS011;8048;50.644;6.184;2022-11-20T05:34:32;7.00;;;5.30;;
15899;SDS011;8048;50.644;6.184;2022-11-20T05:36:57;5.33;;;4.83;;
15899;SDS011;8048;50.644;6.184;2022-11-20T05:39:23;6.10;;;4.93;;
15899;SDS011;8048;50.644;6.184;2022-11-20T05:41:48;7.00;;;5.30;;
15899;SDS011;8048;50.644;6.184;2022-11-20T05:44:34;7.53;;;6.10;;
15899;SDS011;8048;50.644;6.184;2022-11-20T05:46:59;8.80;;;5.30;;
15899;SDS011;8048;50.644;6.184;2022-11-20T05:49:25;12.33;;;7.20;;
15899;SDS011;8048;50.644;6.184;2022-11-20T05:51:50;9.23;;;6.40;;
15899;SDS011;8048;50.644;6.184;2022-11-20T05:54:16;10.03;;;6.73;;
15899;SDS011;8048;50.644;6.184;2022-11-20T05:56:42;9.50;;;6.37;;
15899;SDS011;8048;50.644;6.184;2022-11-20T05:59:07;9.17;;;6.20;;
15899;SDS011;8048;50.644;6.184;2022-11-20T06:01:33;8.90;;;7.17;;
15899;SDS011;8048;50.644;6.184;2022-11-20T06:04:00;12.93;;;5.83;;
15899;SDS011;8048;50.644;6.184;2022-11-20T06:06:26;7.27;;;6.00;;
15899;SDS011;8048;50.644;6.184;2022-11-20T06:08:51;6.50;;;5.10;;
15899;SDS011;8048;50.644;6.184;2022-11-20T06:11:17;9.87;;;6.17;;
15899;SDS011;8048;50.644;6.184;2022-11-20T06:13:43;8.33;;;6.30;;
15899;SDS011;8048;50.644;6.184;2022-11-20T06:16:10;9.03;;;5.77;;
15899;SDS011;8048;50.644;6.184;2022-11-20T06:18:37;7.90;;;5.70;;
15899;SDS011;8048;50.644;6.184;2022-11-20T06:21:07;11.67;;;6.67;;
15899;SDS011;8048;50.644;6.184;2022-11-20T06:23:37;8.07;;;5.60;;
15899;SDS011;8048;50.644;6.184;2022-11-20T06:28:33;11.80;;;7.40;;
15899;SDS011;8048;50.644;6.184;2022-11-20T06:30:58;10.47;;;6.33;;
15899;SDS011;8048;50.644;6.184;2022-11-20T06:33:24;10.10;;;6.73;;
15899;SDS011;8048;50.644;6.184;2022-11-20T06:35:50;10.10;;;5.40;;
15899;SDS011;8048;50.644;6.184;2022-11-20T06:38:16;8.47;;;6.20;;
15899;SDS011;8048;50.644;6.184;2022-11-20T06:40:42;11.03;;;6.57;;
15899;SDS011;8048;50.644;6.184;2022-11-20T06:43:08;16.80;;;7.27;;
15899;SDS011;8048;50.644;6.184;2022-11-20T06:45:34;7.87;;;6.37;;
15899;SDS011;8048;50.644;6.184;2022-11-20T06:48:00;7.97;;;6.07;;
15899;SDS011;8048;50.644;6.184;2022-11-20T06:50:26;13.40;;;7.07;;
15899;SDS011;8048;50.644;6.184;2022-11-20T06:52:52;12.63;;;8.33;;
15899;SDS011;8048;50.644;6.184;2022-11-20T06:55:17;11.37;;;7.33;;
15899;SDS011;8048;50.644;6.184;2022-11-20T06:57:43;10.83;;;6.97;;
15899;SDS011;8048;50.644;6.184;2022-11-20T07:00:08;9.20;;;7.00;;
15899;SDS011;8048;50.644;6.184;2022-11-20T07:02:34;9.67;;;6.40;;
15899;SDS011;8048;50.644;6.184;2022-11-20T07:05:00;9.53;;;7.10;;
15899;SDS011;8048;50.644;6.184;2022-11-20T07:07:25;9.50;;;7.53;;
15899;SDS011;8048;50.644;6.184;2022-11-20T07:09:51;9.83;;;8.30;;
15899;SDS011;8048;50.644;6.184;2022-11-20T07:12:16;10.20;;;7.07;;
15899;SDS011;8048;50.644;6.184;2022-11-20T07:14:42;8.90;;;6.97;;
15899;SDS011;8048;50.644;6.184;2022-11-20T07:17:07;9.77;;;7.77;;
15899;SDS011;8048;50.644;6.184;2022-11-20T07:19:33;9.80;;;8.43;;
15899;SDS011;8048;50.644;6.184;2022-11-20T07:21:58;9.60;;;7.23;;
15899;SDS011;8048;50.644;6.184;2022-11-20T07:24:24;13.63;;;9.30;;
15899;SDS011;8048;50.644;6.184;2022-11-20T07:26:49;8.83;;;7.30;;
15899;SDS011;8048;50.644;6.184;2022-11-20T07:29:15;10.80;;;8.53;;
15899;SDS011;8048;50.644;6.184;2022-11-20T07:31:41;13.17;;;8.00;;
15899;SDS011;8048;50.644;6.184;2022-11-20T07:34:07;13.17;;;8.77;;
15899;SDS011;8048;50.644;6.184;2022-11-20T07:36:33;13.70;;;8.90;;
15899;SDS011;8048;50.644;6.184;2022-11-20T07:38:59;15.50;;;11.03;;
15899;SDS011;8048;50.644;6.184;2022-11-20T07:41:24;18.63;;;12.00;;
15899;SDS011;8048;50.644;6.184;2022-11-20T07:43:50;17.20;;;10.27;;
15899;SDS011;8048;50.644;6.184;2022-11-20T07:46:15;19.97;;;13.30;;
15899;SDS011;8048;50.644;6.184;2022-11-20T07:48:41;21.07;;;12.23;;
15899;SDS011;8048;50.644;6.184;2022-11-20T07:51:06;17.50;;;11.73;;
15899;SDS011;8048;50.644;6.184;2022-11-20T07:53:32;20.50;;;9.50;;
15899;SDS011;8048;50.644;6.184;2022-11-20T07:56:01;22.17;;;11.73;;
15899;SDS011;8048;50.644;6.184;2022-11-20T07:58:28;19.90;;;11.40;;
15899;SDS011;8048;50.644;6.184;2022-11-20T08:00:54;25.47;;;13.10;;
15899;SDS011;8048;50.644;6.184;2022-11-20T08:03:20;17.37;;;11.43;;
15899;SDS011;8048;50.644;6.184;2022-11-20T08:05:46;19.00;;;11.73;;
15899;SDS011;8048;50.644;6.184;2022-11-20T08:08:12;15.43;;;9.83;;
15899;SDS011;8048;50.644;6.184;2022-11-20T08:10:37;18.47;;;10.90;;
15899;SDS011;8048;50.644;6.184;2022-11-20T08:13:03;16.13;;;11.77;;
15899;SDS011;8048;50.644;6.184;2022-11-20T08:15:48;20.07;;;11.27;;
15899;SDS011;8048;50.644;6.184;2022-11-20T08:18:15;16.67;;;10.93;;
15899;SDS011;8048;50.644;6.184;2022-11-20T08:20:42;18.97;;;11.80;;
15899;SDS011;8048;50.644;6.184;2022-11-20T08:23:08;26.43;;;12.70;;
15899;SDS011;8048;50.644;6.184;2022-11-20T08:25:34;26.00;;;11.20;;
15899;SDS011;8048;50.644;6.184;2022-11-20T08:28:02;17.13;;;9.60;;
15899;SDS011;8048;50.644;6.184;2022-11-20T08:30:29;25.20;;;14.43;;
15899;SDS011;8048;50.644;6.184;2022-11-20T08:32:59;16.90;;;9.60;;
15899;SDS011;8048;50.644;6.184;2022-11-20T08:35:27;20.07;;;10.93;;
15899;SDS011;8048;50.644;6.184;2022-11-20T08:37:52;19.03;;;11.50;;
15899;SDS011;8048;50.644;6.184;2022-11-20T08:40:18;21.97;;;11.97;;
15899;SDS011;8048;50.644;6.184;2022-11-20T08:42:47;19.00;;;11.27;;
15899;SDS011;8048;50.644;6.184;2022-11-20T08:45:14;19.53;;;10.47;;
15899;SDS011;8048;50.644;6.184;2022-11-20T08:47:40;17.27;;;10.87;;
15899;SDS011;8048;50.644;6.184;2022-11-20T08:50:06;16.13;;;9.50;;
15899;SDS011;8048;50.644;6.184;2022-11-20T08:52:33;17.97;;;9.07;;
15899;SDS011;8048;50.644;6.184;2022-11-20T08:54:58;14.63;;;9.33;;
15899;SDS011;8048;50.644;6.184;2022-11-20T08:57:24;15.20;;;9.60;;
15899;SDS011;8048;50.644;6.184;2022-11-20T08:59:49;14.90;;;9.03;;
15899;SDS011;8048;50.644;6.184;2022-11-20T09:02:15;17.70;;;9.87;;
15899;SDS011;8048;50.644;6.184;2022-11-20T09:04:40;16.57;;;12.17;;
15899;SDS011;8048;50.644;6.184;2022-11-20T09:07:06;14.40;;;11.87;;
15899;SDS011;8048;50.644;6.184;2022-11-20T09:09:31;18.00;;;9.77;;
15899;SDS011;8048;50.644;6.184;2022-11-20T09:11:57;16.33;;;8.47;;
15899;SDS011;8048;50.644;6.184;2022-11-20T09:14:23;14.80;;;10.63;;
15899;SDS011;8048;50.644;6.184;2022-11-20T09:16:53;16.07;;;9.37;;
15899;SDS011;8048;50.644;6.184;2022-11-20T09:19:19;21.83;;;11.50;;
15899;SDS011;8048;50.644;6.184;2022-11-20T09:21:45;13.13;;;8.70;;
15899;SDS011;8048;50.644;6.184;2022-11-20T09:24:11;14.33;;;10.47;;
15899;SDS011;8048;50.644;6.184;2022-11-20T09:26:36;12.73;;;8.13;;
15899;SDS011;8048;50.644;6.184;2022-11-20T09:29:02;10.90;;;8.37;;
15899;SDS011;8048;50.644;6.184;2022-11-20T09:31:27;14.10;;;9.60;;
15899;SDS011;8048;50.644;6.184;2022-11-20T09:33:53;15.93;;;10.40;;
15899;SDS011;8048;50.644;6.184;2022-11-20T09:36:18;14.90;;;10.20;;
15899;SDS011;8048;50.644;6.184;2022-11-20T09:38:45;12.03;;;8.40;;
15899;SDS011;8048;50.644;6.184;2022-11-20T09:41:28;15.37;;;8.80;;
15899;SDS011;8048;50.644;6.184;2022-11-20T09:47:01;15.10;;;9.73;;
15899;SDS011;8048;50.644;6.184;2022-11-20T09:52:49;15.20;;;9.70;;
15899;SDS011;8048;50.644;6.184;2022-11-20T09:55:29;12.70;;;8.33;;
15899;SDS011;8048;50.644;6.184;2022-11-20T09:57:56;9.67;;;8.03;;
15899;SDS011;8048;50.644;6.184;2022-11-20T10:00:24;12.10;;;9.23;;
15899;SDS011;8048;50.644;6.184;2022-11-20T10:05:51;13.37;;;7.57;;
15899;SDS011;8048;50.644;6.184;2022-11-20T10:08:21;9.40;;;7.50;;
15899;SDS011;8048;50.644;6.184;2022-11-20T10:10:51;9.50;;;7.80;;
15899;SDS011;8048;50.644;6.184;2022-11-20T10:13:45;17.13;;;8.40;;
15899;SDS011;8048;50.644;6.184;2022-11-20T10:19:16;10.67;;;8.07;;
15899;SDS011;8048;50.644;6.184;2022-11-20T10:22:16;10.60;;;8.00;;
15899;SDS011;8048;50.644;6.184;2022-11-20T10:30:36;9.90;;;7.50;;
15899;SDS011;8048;50.644;6.184;2022-11-20T10:33:06;11.37;;;6.93;;
15899;SDS011;8048;50.644;6.184;2022-11-20T10:35:49;11.30;;;8.43;;
15899;SDS011;8048;50.644;6.184;2022-11-20T10:38:25;11.43;;;6.57;;
15899;SDS011;8048;50.644;6.184;2022-11-20T10:41:22;11.00;;;8.03;;
15899;SDS011;8048;50.644;6.184;2022-11-20T10:44:02;10.60;;;6.67;;
15899;SDS011;8048;50.644;6.184;2022-11-20T10:47:00;9.03;;;7.03;;
15899;SDS011;8048;50.644;6.184;2022-11-20T10:49:26;9.80;;;7.43;;
15899;SDS011;8048;50.644;6.184;2022-11-20T10:54:39;7.80;;;6.13;;
15899;SDS011;8048;50.644;6.184;2022-11-20T10:59:53;10.77;;;6.20;;
15899;SDS011;8048;50.644;6.184;2022-11-20T11:02:33;12.87;;;6.00;;
15899;SDS011;8048;50.644;6.184;2022-11-20T11:05:47;9.97;;;6.23;;
15899;SDS011;8048;50.644;6.184;2022-11-20T11:08:16;10.60;;;5.50;;
15899;SDS011;8048;50.644;6.184;2022-11-20T11:15:52;6.30;;;5.50;;
15899;SDS011;8048;50.644;6.184;2022-11-20T11:18:27;6.17;;;5.57;;
15899;SDS011;8048;50.644;6.184;2022-11-20T11:20:58;8.23;;;5.30;;
15899;SDS011;8048;50.644;6.184;2022-11-20T11:25:57;6.37;;;5.73;;
15899;SDS011;8048;50.644;6.184;2022-11-20T11:28:24;7.33;;;5.43;;
15899;SDS011;8048;50.644;6.184;2022-11-20T11:30:52;6.63;;;6.03;;
15899;SDS011;8048;50.644;6.184;2022-11-20T11:33:19;5.97;;;5.40;;
15899;SDS011;8048;50.644;6.184;2022-11-20T11:35:48;5.90;;;5.30;;
15899;SDS011;8048;50.644;6.184;2022-11-20T11:38:19;5.07;;;4.63;;
15899;SDS011;8048;50.644;6.184;2022-11-20T11:40:48;5.23;;;4.13;;
15899;SDS011;8048;50.644;6.184;2022-11-20T11:43:21;5.00;;;4.13;;
15899;SDS011;8048;50.644;6.184;2022-11-20T11:46:54;5.30;;;3.60;;
15899;SDS011;8048;50.644;6.184;2022-11-20T11:49:00;4.73;;;4.30;;
15899;SDS011;8048;50.644;6.184;2022-11-20T11:51:39;4.10;;;3.50;;
15899;SDS011;8048;50.644;6.184;2022-11-20T11:54:19;8.80;;;4.70;;
15899;SDS011;8048;50.644;6.184;2022-11-20T11:56:49;4.43;;;3.60;;
15899;SDS011;8048;50.644;6.184;2022-11-20T11:59:18;3.73;;;3.50;;
15899;SDS011;8048;50.644;6.184;2022-11-20T12:02:15;3.77;;;3.43;;
15899;SDS011;8048;50.644;6.184;2022-11-20T12:05:17;3.30;;;3.10;;
15899;SDS011;8048;50.644;6.184;2022-11-20T12:08:05;4.80;;;4.60;;
15899;SDS011;8048;50.644;6.184;2022-11-20T12:10:45;3.43;;;3.13;;
15899;SDS011;8048;50.644;6.184;2022-11-20T12:16:00;3.50;;;3.07;;
15899;SDS011;8048;50.644;6.184;2022-11-20T12:18:27;3.13;;;2.93;;
15899;SDS011;8048;50.644;6.184;2022-11-20T12:23:56;3.10;;;2.90;;
15899;SDS011;8048;50.644;6.184;2022-11-20T12:32:06;4.67;;;2.87;;
15899;SDS011;8048;50.644;6.184;2022-11-20T12:40:22;1.90;;;1.80;;
15899;SDS011;8048;50.644;6.184;2022-11-20T12:42:54;2.37;;;2.27;;
15899;SDS011;8048;50.644;6.184;2022-11-20T12:56:21;2.37;;;2.27;;
15899;SDS011;8048;50.644;6.184;2022-11-20T13:07:41;2.60;;;2.30;;
15899;SDS011;8048;50.644;6.184;2022-11-20T13:13:23;2.27;;;2.17;;
15899;SDS011;8048;50.644;6.184;2022-11-20T13:16:00;2.10;;;2.00;;
15899;SDS011;8048;50.644;6.184;2022-11-20T13:18:34;2.77;;;2.57;;
15899;SDS011;8048;50.644;6.184;2022-11-20T13:21:14;2.07;;;1.97;;
15899;SDS011;8048;50.644;6.184;2022-11-20T13:23:41;1.87;;;1.80;;
15899;SDS011;8048;50.644;6.184;2022-11-20T13:26:17;2.10;;;2.00;;
15899;SDS011;8048;50.644;6.184;2022-11-20T13:28:45;1.83;;;1.73;;
15899;SDS011;8048;50.644;6.184;2022-11-20T13:31:31;2.13;;;1.93;;
15899;SDS011;8048;50.644;6.184;2022-11-20T13:34:02;2.37;;;2.17;;
15899;SDS011;8048;50.644;6.184;2022-11-20T13:36:30;2.03;;;1.97;;
15899;SDS011;8048;50.644;6.184;2022-11-20T13:38:57;4.43;;;2.37;;
15899;SDS011;8048;50.644;6.184;2022-11-20T13:41:33;2.73;;;1.77;;
15899;SDS011;8048;50.644;6.184;2022-11-20T13:44:29;2.10;;;2.00;;
15899;SDS011;8048;50.644;6.184;2022-11-20T13:47:02;1.83;;;1.83;;
15899;SDS011;8048;50.644;6.184;2022-11-20T13:49:46;2.30;;;2.10;;
15899;SDS011;8048;50.644;6.184;2022-11-20T13:52:31;1.73;;;1.63;;
15899;SDS011;8048;50.644;6.184;2022-11-20T13:55:20;2.17;;;2.03;;
15899;SDS011;8048;50.644;6.184;2022-11-20T14:00:58;1.53;;;1.53;;
15899;SDS011;8048;50.644;6.184;2022-11-20T14:03:36;2.00;;;1.70;;
15899;SDS011;8048;50.644;6.184;2022-11-20T14:06:03;1.33;;;1.33;;
15899;SDS011;8048;50.644;6.184;2022-11-20T14:08:37;1.60;;;1.60;;
15899;SDS011;8048;50.644;6.184;2022-11-20T14:16:20;2.17;;;2.07;;
15899;SDS011;8048;50.644;6.184;2022-11-20T14:18:47;1.53;;;1.53;;
15899;SDS011;8048;50.644;6.184;2022-11-20T14:21:21;3.90;;;2.23;;
15899;SDS011;8048;50.644;6.184;2022-11-20T14:23:47;1.50;;;1.40;;
15899;SDS011;8048;50.644;6.184;2022-11-20T14:26:16;1.90;;;1.80;;
15899;SDS011;8048;50.644;6.184;2022-11-20T14:28:47;2.70;;;2.50;;
15899;SDS011;8048;50.644;6.184;2022-11-20T14:31:25;2.83;;;2.33;;
15899;SDS011;8048;50.644;6.184;2022-11-20T14:33:52;5.23;;;2.67;;
15899;SDS011;8048;50.644;6.184;2022-11-20T14:36:20;2.70;;;2.60;;
15899;SDS011;8048;50.644;6.184;2022-11-20T14:38:48;2.00;;;1.90;;
15899;SDS011;8048;50.644;6.184;2022-11-20T14:41:19;3.13;;;2.50;;
15899;SDS011;8048;50.644;6.184;2022-11-20T14:43:47;2.33;;;2.23;;
15899;SDS011;8048;50.644;6.184;2022-11-20T14:46:20;1.83;;;1.70;;
15899;SDS011;8048;50.644;6.184;2022-11-20T14:48:47;2.70;;;2.50;;
15899;SDS011;8048;50.644;6.184;2022-11-20T14:51:33;2.40;;;2.30;;
15899;SDS011;8048;50.644;6.184;2022-11-20T14:56:55;2.30;;;2.10;;
15899;SDS011;8048;50.644;6.184;2022-11-20T14:59:22;6.10;;;2.80;;
15899;SDS011;8048;50.644;6.184;2022-11-20T15:02:03;2.00;;;1.90;;
15899;SDS011;8048;50.644;6.184;2022-11-20T15:04:30;3.13;;;2.87;;
15899;SDS011;8048;50.644;6.184;2022-11-20T15:06:57;2.60;;;2.40;;
15899;SDS011;8048;50.644;6.184;2022-11-20T15:09:23;2.53;;;2.30;;
15899;SDS011;8048;50.644;6.184;2022-11-20T15:11:55;2.60;;;2.50;;
15899;SDS011;8048;50.644;6.184;2022-11-20T15:14:24;2.50;;;2.40;;
15899;SDS011;8048;50.644;6.184;2022-11-20T15:16:50;3.03;;;2.83;;
15899;SDS011;8048;50.644;6.184;2022-11-20T15:19:21;2.50;;;2.40;;
15899;SDS011;8048;50.644;6.184;2022-11-20T15:21:48;2.83;;;2.63;;
15899;SDS011;8048;50.644;6.184;2022-11-20T15:24:14;5.60;;;2.07;;
15899;SDS011;8048;50.644;6.184;2022-11-20T15:26:40;2.00;;;1.90;;
15899;SDS011;8048;50.644;6.184;2022-11-20T15:29:09;1.90;;;1.80;;
15899;SDS011;8048;50.644;6.184;2022-11-20T15:31:37;1.90;;;1.80;;
15899;SDS011;8048;50.644;6.184;2022-11-20T15:34:10;1.87;;;1.77;;
15899;SDS011;8048;50.644;6.184;2022-11-20T15:36:37;2.53;;;1.80;;
15899;SDS011;8048;50.644;6.184;2022-11-20T15:39:03;2.00;;;1.90;;
15899;SDS011;8048;50.644;6.184;2022-11-20T15:41:29;2.87;;;2.27;;
15899;SDS011;8048;50.644;6.184;2022-11-20T15:43:54;2.07;;;1.93;;
15899;SDS011;8048;50.644;6.184;2022-11-20T15:46:23;2.07;;;1.97;;
15899;SDS011;8048;50.644;6.184;2022-11-20T15:48:55;2.30;;;2.20;;
15899;SDS011;8048;50.644;6.184;2022-11-20T15:51:35;1.70;;;1.70;;
15899;SDS011;8048;50.644;6.184;2022-11-20T15:54:18;1.90;;;1.83;;
15899;SDS011;8048;50.644;6.184;2022-11-20T15:56:46;2.20;;;2.10;;
15899;SDS011;8048;50.644;6.184;2022-11-20T15:59:12;1.87;;;1.83;;
15899;SDS011;8048;50.644;6.184;2022-11-20T16:01:39;1.70;;;1.70;;
15899;SDS011;8048;50.644;6.184;2022-11-20T16:04:12;1.87;;;1.80;;
15899;SDS011;8048;50.644;6.184;2022-11-20T16:06:39;1.70;;;1.70;;
15899;SDS011;8048;50.644;6.184;2022-11-20T16:09:05;2.00;;;1.80;;
15899;SDS011;8048;50.644;6.184;2022-11-20T16:11:32;1.60;;;1.60;;
15899;SDS011;8048;50.644;6.184;2022-11-20T16:13:58;1.70;;;1.60;;
15899;SDS011;8048;50.644;6.184;2022-11-20T16:16:42;1.60;;;1.60;;
15899;SDS011;8048;50.644;6.184;2022-11-20T16:19:11;1.57;;;1.57;;
15899;SDS011;8048;50.644;6.184;2022-11-20T16:21:37;2.20;;;2.10;;
15899;SDS011;8048;50.644;6.184;2022-11-20T16:24:06;1.90;;;1.90;;
15899;SDS011;8048;50.644;6.184;2022-11-20T16:26:33;1.53;;;1.53;;
15899;SDS011;8048;50.644;6.184;2022-11-20T16:28:59;2.00;;;1.93;;
15899;SDS011;8048;50.644;6.184;2022-11-20T16:31:25;1.50;;;1.50;;
15899;SDS011;8048;50.644;6.184;2022-11-20T16:33:51;1.50;;;1.50;;
15899;SDS011;8048;50.644;6.184;2022-11-20T16:36:19;1.70;;;1.70;;